sensor_id;sensor_type;location;lat;lon;timestamp;pressure;altitude;pressure_sealevel;temperature;humidity
29549;BME280;16487;53.094;8.800;2023-06-04T00:00:32;102229.47;;;12.41;100.00
29549;BME280;16487;53.094;8.800;2023-06-04T00:03:01;102224.19;;;12.46;100.00
29549;BME280;16487;53.094;8.800;2023-06-04T00:05:28;102214.09;;;12.52;100.00
29549;BME280;16487;53.094;8.800;2023-06-04T00:07:56;102209.75;;;12.51;100.00
29549;BME280;16487;53.094;8.800;2023-06-04T00:10:23;102206.94;;;12.51;100.00
29549;BME280;16487;53.094;8.800;2023-06-04T00:12:51;102213.34;;;12.48;100.00
29549;BME280;16487;53.094;8.800;2023-06-04T00:15:18;102221.97;;;12.61;100.00
29549;BME280;16487;53.094;8.800;2023-06-04T00:17:46;102206.28;;;12.40;100.00
29549;BME280;16487;53.094;8.800;2023-06-04T00:20:15;102204.47;;;12.57;100.00
29549;BME280;16487;53.094;8.800;2023-06-04T00:22:42;102203.03;;;12.45;100.00
29549;BME280;16487;53.094;8.800;2023-06-04T00:25:10;102202.81;;;12.59;100.00
29549;BME280;16487;53.094;8.800;2023-06-04T00:27:38;102198.69;;;12.67;100.00
29549;BME280;16487;53.094;8.800;2023-06-04T00:30:06;102198.47;;;12.58;100.00
29549;BME280;16487;53.094;8.800;2023-06-04T00:32:34;102195.53;;;12.39;100.00
29549;BME280;16487;53.094;8.800;2023-06-04T00:35:02;102181.97;;;12.37;100.00
29549;BME280;16487;53.094;8.800;2023-06-04T00:37:31;102186.47;;;12.28;100.00
29549;BME280;16487;53.094;8.800;2023-06-04T00:39:59;102180.97;;;12.21;100.00
29549;BME280;16487;53.094;8.800;2023-06-04T00:42:26;102173.72;;;12.27;100.00
29549;BME280;16487;53.094;8.800;2023-06-04T00:44:54;102180.34;;;12.10;100.00
29549;BME280;16487;53.094;8.800;2023-06-04T00:47:21;102184.09;;;12.26;100.00
29549;BME280;16487;53.094;8.800;2023-06-04T00:49:49;102178.00;;;12.05;100.00
29549;BME280;16487;53.094;8.800;2023-06-04T00:52:16;102166.38;;;12.10;100.00
29549;BME280;16487;53.094;8.800;2023-06-04T00:54:45;102161.03;;;12.22;100.00
29549;BME280;16487;53.094;8.800;2023-06-04T00:57:12;102166.84;;;12.05;100.00
29549;BME280;16487;53.094;8.800;2023-06-04T00:59:40;102152.41;;;12.10;100.00
29549;BME280;16487;53.094;8.800;2023-06-04T01:02:11;102158.34;;;11.82;100.00
29549;BME280;16487;53.094;8.800;2023-06-04T01:04:44;102154.31;;;11.83;100.00
29549;BME280;16487;53.094;8.800;2023-06-04T01:07:14;102137.59;;;11.79;100.00
29549;BME280;16487;53.094;8.800;2023-06-04T01:09:45;102139.06;;;11.91;100.00
29549;BME280;16487;53.094;8.800;2023-06-04T01:12:13;102153.41;;;11.93;100.00
29549;BME280;16487;53.094;8.800;2023-06-04T01:14:40;102146.66;;;11.90;100.00
29549;BME280;16487;53.094;8.800;2023-06-04T01:17:12;102153.41;;;11.93;100.00
29549;BME280;16487;53.094;8.800;2023-06-04T01:20:02;102153.47;;;11.89;100.00
29549;BME280;16487;53.094;8.800;2023-06-04T01:22:38;102136.88;;;12.05;100.00
29549;BME280;16487;53.094;8.800;2023-06-04T01:25:14;102144.31;;;11.85;100.00
29549;BME280;16487;53.094;8.800;2023-06-04T01:27:42;102137.72;;;11.72;100.00
29549;BME280;16487;53.094;8.800;2023-06-04T01:30:11;102134.19;;;11.65;100.00
29549;BME280;16487;53.094;8.800;2023-06-04T01:32:39;102119.53;;;11.53;100.00
29549;BME280;16487;53.094;8.800;2023-06-04T01:35:08;102104.50;;;11.78;100.00
29549;BME280;16487;53.094;8.800;2023-06-04T01:37:36;102124.25;;;11.60;100.00
29549;BME280;16487;53.094;8.800;2023-06-04T01:40:05;102110.69;;;11.58;100.00
29549;BME280;16487;53.094;8.800;2023-06-04T01:42:34;102087.88;;;11.64;100.00
29549;BME280;16487;53.094;8.800;2023-06-04T01:45:01;102089.75;;;11.43;100.00
29549;BME280;16487;53.094;8.800;2023-06-04T01:47:29;102069.63;;;11.25;100.00
29549;BME280;16487;53.094;8.800;2023-06-04T01:49:56;102071.59;;;11.58;100.00
29549;BME280;16487;53.094;8.800;2023-06-04T01:52:24;102075.84;;;11.36;100.00
29549;BME280;16487;53.094;8.800;2023-06-04T01:54:52;102066.59;;;11.43;100.00
29549;BME280;16487;53.094;8.800;2023-06-04T01:57:19;102054.16;;;11.51;100.00
29549;BME280;16487;53.094;8.800;2023-06-04T01:59:48;102068.94;;;11.14;100.00
29549;BME280;16487;53.094;8.800;2023-06-04T02:02:16;102064.31;;;11.34;100.00
29549;BME280;16487;53.094;8.800;2023-06-04T02:04:44;102051.31;;;11.54;100.00
29549;BME280;16487;53.094;8.800;2023-06-04T02:07:12;102058.72;;;11.34;100.00
29549;BME280;16487;53.094;8.800;2023-06-04T02:09:39;102045.28;;;11.26;100.00
29549;BME280;16487;53.094;8.800;2023-06-04T02:12:09;102049.47;;;11.44;100.00
29549;BME280;16487;53.094;8.800;2023-06-04T02:14:40;102053.28;;;11.57;100.00
29549;BME280;16487;53.094;8.800;2023-06-04T02:17:09;102062.34;;;11.31;100.00
29549;BME280;16487;53.094;8.800;2023-06-04T02:19:37;102049.09;;;11.05;100.00
29549;BME280;16487;53.094;8.800;2023-06-04T02:22:05;102051.28;;;10.87;100.00
29549;BME280;16487;53.094;8.800;2023-06-04T02:24:34;102046.00;;;10.96;100.00
29549;BME280;16487;53.094;8.800;2023-06-04T02:27:03;102033.00;;;11.20;100.00
29549;BME280;16487;53.094;8.800;2023-06-04T02:29:31;102035.66;;;10.93;100.00
29549;BME280;16487;53.094;8.800;2023-06-04T02:31:58;102028.13;;;10.90;100.00
29549;BME280;16487;53.094;8.800;2023-06-04T02:34:27;102021.56;;;11.07;100.00
29549;BME280;16487;53.094;8.800;2023-06-04T02:36:55;102007.84;;;10.86;100.00
29549;BME280;16487;53.094;8.800;2023-06-04T02:39:24;102017.09;;;11.13;100.00
29549;BME280;16487;53.094;8.800;2023-06-04T02:41:52;102033.41;;;11.18;100.00
29549;BME280;16487;53.094;8.800;2023-06-04T02:44:19;102034.31;;;11.08;100.00
29549;BME280;16487;53.094;8.800;2023-06-04T02:46:47;102034.22;;;11.15;100.00
29549;BME280;16487;53.094;8.800;2023-06-04T02:49:14;102032.97;;;11.23;100.00
29549;BME280;16487;53.094;8.800;2023-06-04T02:51:43;102029.91;;;11.11;100.00
29549;BME280;16487;53.094;8.800;2023-06-04T02:54:11;102035.63;;;10.97;100.00
29549;BME280;16487;53.094;8.800;2023-06-04T02:56:39;102028.06;;;10.57;100.00
29549;BME280;16487;53.094;8.800;2023-06-04T02:59:06;101991.94;;;10.83;100.00
29549;BME280;16487;53.094;8.800;2023-06-04T03:01:34;102001.63;;;10.75;100.00
29549;BME280;16487;53.094;8.800;2023-06-04T03:04:02;101994.59;;;10.57;100.00
29549;BME280;16487;53.094;8.800;2023-06-04T03:06:31;101970.59;;;10.70;100.00
29549;BME280;16487;53.094;8.800;2023-06-04T03:09:00;101967.34;;;10.75;100.00
29549;BME280;16487;53.094;8.800;2023-06-04T03:11:29;101975.28;;;10.76;100.00
29549;BME280;16487;53.094;8.800;2023-06-04T03:13:56;101960.28;;;10.63;100.00
29549;BME280;16487;53.094;8.800;2023-06-04T03:16:24;101945.91;;;10.68;100.00
29549;BME280;16487;53.094;8.800;2023-06-04T03:18:51;101935.34;;;10.86;100.00
29549;BME280;16487;53.094;8.800;2023-06-04T03:21:19;101943.31;;;10.84;100.00
29549;BME280;16487;53.094;8.800;2023-06-04T03:23:47;101934.72;;;11.05;100.00
29549;BME280;16487;53.094;8.800;2023-06-04T03:26:16;101938.75;;;11.01;100.00
29549;BME280;16487;53.094;8.800;2023-06-04T03:28:44;101943.31;;;10.84;100.00
29549;BME280;16487;53.094;8.800;2023-06-04T03:31:15;101943.81;;;10.76;100.00
29549;BME280;16487;53.094;8.800;2023-06-04T03:33:42;101937.91;;;10.70;100.00
29549;BME280;16487;53.094;8.800;2023-06-04T03:36:10;101933.16;;;10.67;100.00
29549;BME280;16487;53.094;8.800;2023-06-04T03:38:37;101911.31;;;10.25;100.00
29549;BME280;16487;53.094;8.800;2023-06-04T03:41:05;101880.22;;;10.30;100.00
29549;BME280;16487;53.094;8.800;2023-06-04T03:43:34;101861.50;;;10.64;100.00
29549;BME280;16487;53.094;8.800;2023-06-04T03:46:05;101859.25;;;10.52;100.00
29549;BME280;16487;53.094;8.800;2023-06-04T03:48:32;101833.97;;;10.36;100.00
29549;BME280;16487;53.094;8.800;2023-06-04T03:51:00;101803.25;;;10.73;100.00
29549;BME280;16487;53.094;8.800;2023-06-04T03:53:27;101800.53;;;10.96;100.00
29549;BME280;16487;53.094;8.800;2023-06-04T03:55:56;101817.06;;;10.50;100.00
29549;BME280;16487;53.094;8.800;2023-06-04T03:58:23;101800.44;;;10.43;100.00
29549;BME280;16487;53.094;8.800;2023-06-04T04:00:53;101817.69;;;10.95;100.00
29549;BME280;16487;53.094;8.800;2023-06-04T04:03:20;101837.81;;;11.09;100.00
29549;BME280;16487;53.094;8.800;2023-06-04T04:05:48;101844.28;;;11.03;100.00
29549;BME280;16487;53.094;8.800;2023-06-04T04:08:16;101843.59;;;10.95;100.00
29549;BME280;16487;53.094;8.800;2023-06-04T04:10:44;101839.09;;;11.01;100.00
29549;BME280;16487;53.094;8.800;2023-06-04T04:13:12;101838.75;;;10.99;100.00
29549;BME280;16487;53.094;8.800;2023-06-04T04:15:41;101830.63;;;11.08;100.00
29549;BME280;16487;53.094;8.800;2023-06-04T04:18:09;101836.63;;;10.80;100.00
29549;BME280;16487;53.094;8.800;2023-06-04T04:20:38;101804.94;;;10.64;100.00
29549;BME280;16487;53.094;8.800;2023-06-04T04:23:08;101792.19;;;10.66;100.00
29549;BME280;16487;53.094;8.800;2023-06-04T04:25:37;101765.88;;;10.67;100.00
29549;BME280;16487;53.094;8.800;2023-06-04T04:28:06;101759.78;;;10.76;100.00
29549;BME280;16487;53.094;8.800;2023-06-04T04:30:35;101758.59;;;10.77;100.00
29549;BME280;16487;53.094;8.800;2023-06-04T04:33:04;101738.38;;;10.96;100.00
29549;BME280;16487;53.094;8.800;2023-06-04T04:35:39;101742.53;;;10.84;100.00
29549;BME280;16487;53.094;8.800;2023-06-04T04:38:06;101732.22;;;10.81;100.00
29549;BME280;16487;53.094;8.800;2023-06-04T04:40:40;101725.78;;;10.84;100.00
29549;BME280;16487;53.094;8.800;2023-06-04T04:43:09;101728.09;;;10.89;100.00
29549;BME280;16487;53.094;8.800;2023-06-04T04:45:38;101719.28;;;10.94;100.00
29549;BME280;16487;53.094;8.800;2023-06-04T04:48:07;101713.34;;;10.92;100.00
29549;BME280;16487;53.094;8.800;2023-06-04T04:50:35;101716.72;;;11.03;100.00
29549;BME280;16487;53.094;8.800;2023-06-04T04:53:04;101731.44;;;11.07;100.00
29549;BME280;16487;53.094;8.800;2023-06-04T04:55:33;101731.22;;;10.95;100.00
29549;BME280;16487;53.094;8.800;2023-06-04T04:58:01;101711.78;;;11.14;100.00
29549;BME280;16487;53.094;8.800;2023-06-04T05:00:29;101724.16;;;11.36;100.00
29549;BME280;16487;53.094;8.800;2023-06-04T05:02:57;101753.53;;;11.44;100.00
29549;BME280;16487;53.094;8.800;2023-06-04T05:05:24;101774.97;;;11.51;100.00
29549;BME280;16487;53.094;8.800;2023-06-04T05:07:52;101774.16;;;11.50;100.00
29549;BME280;16487;53.094;8.800;2023-06-04T05:10:25;101779.50;;;11.41;100.00
29549;BME280;16487;53.094;8.800;2023-06-04T05:12:54;101765.91;;;11.43;100.00
29549;BME280;16487;53.094;8.800;2023-06-04T05:15:25;101782.28;;;11.41;100.00
29549;BME280;16487;53.094;8.800;2023-06-04T05:17:55;101777.88;;;11.67;100.00
29549;BME280;16487;53.094;8.800;2023-06-04T05:20:23;101803.09;;;11.87;100.00
29549;BME280;16487;53.094;8.800;2023-06-04T05:22:51;101815.97;;;11.81;100.00
29549;BME280;16487;53.094;8.800;2023-06-04T05:25:19;101802.06;;;11.77;100.00
29549;BME280;16487;53.094;8.800;2023-06-04T05:27:48;101795.31;;;11.75;100.00
29549;BME280;16487;53.094;8.800;2023-06-04T05:30:17;101796.69;;;11.86;100.00
29549;BME280;16487;53.094;8.800;2023-06-04T05:32:44;101792.28;;;11.89;100.00
29549;BME280;16487;53.094;8.800;2023-06-04T05:35:15;101801.28;;;12.00;100.00
29549;BME280;16487;53.094;8.800;2023-06-04T05:37:43;101814.44;;;11.99;100.00
29549;BME280;16487;53.094;8.800;2023-06-04T05:40:11;101831.53;;;12.44;100.00
29549;BME280;16487;53.094;8.800;2023-06-04T05:42:40;101854.81;;;12.60;100.00
29549;BME280;16487;53.094;8.800;2023-06-04T05:45:10;101871.00;;;12.69;100.00
29549;BME280;16487;53.094;8.800;2023-06-04T05:47:40;101896.38;;;12.78;100.00
29549;BME280;16487;53.094;8.800;2023-06-04T05:50:08;101905.72;;;12.91;100.00
29549;BME280;16487;53.094;8.800;2023-06-04T05:52:37;101917.78;;;12.88;100.00
29549;BME280;16487;53.094;8.800;2023-06-04T05:55:08;101924.00;;;12.96;100.00
29549;BME280;16487;53.094;8.800;2023-06-04T05:57:38;101927.50;;;13.03;100.00
29549;BME280;16487;53.094;8.800;2023-06-04T06:00:06;101932.44;;;13.15;100.00
29549;BME280;16487;53.094;8.800;2023-06-04T06:02:41;101957.84;;;13.24;100.00
29549;BME280;16487;53.094;8.800;2023-06-04T06:05:21;101970.25;;;13.04;100.00
29549;BME280;16487;53.094;8.800;2023-06-04T06:07:49;101984.09;;;13.11;100.00
29549;BME280;16487;53.094;8.800;2023-06-04T06:10:16;102002.63;;;13.24;100.00
29549;BME280;16487;53.094;8.800;2023-06-04T06:12:44;102029.31;;;13.68;100.00
29549;BME280;16487;53.094;8.800;2023-06-04T06:15:12;102066.38;;;13.75;100.00
29549;BME280;16487;53.094;8.800;2023-06-04T06:17:44;102092.97;;;13.67;100.00
29549;BME280;16487;53.094;8.800;2023-06-04T06:20:12;102097.25;;;13.52;100.00
29549;BME280;16487;53.094;8.800;2023-06-04T06:22:42;102107.81;;;13.64;100.00
29549;BME280;16487;53.094;8.800;2023-06-04T06:25:10;102127.00;;;13.86;100.00
29549;BME280;16487;53.094;8.800;2023-06-04T06:27:41;102162.59;;;14.28;100.00
29549;BME280;16487;53.094;8.800;2023-06-04T06:30:11;102207.22;;;14.19;100.00
29549;BME280;16487;53.094;8.800;2023-06-04T06:32:39;102216.59;;;14.32;100.00
29549;BME280;16487;53.094;8.800;2023-06-04T06:35:08;102237.66;;;14.40;100.00
29549;BME280;16487;53.094;8.800;2023-06-04T06:37:36;102243.78;;;14.35;100.00
29549;BME280;16487;53.094;8.800;2023-06-04T06:40:05;102248.06;;;14.39;100.00
29549;BME280;16487;53.094;8.800;2023-06-04T06:42:33;102254.78;;;14.45;100.00
29549;BME280;16487;53.094;8.800;2023-06-04T06:45:00;102276.13;;;14.59;100.00
29549;BME280;16487;53.094;8.800;2023-06-04T06:47:28;102277.44;;;14.54;100.00
29549;BME280;16487;53.094;8.800;2023-06-04T06:49:55;102292.22;;;14.74;100.00
29549;BME280;16487;53.094;8.800;2023-06-04T06:52:24;102310.91;;;14.81;100.00
29549;BME280;16487;53.094;8.800;2023-06-04T06:54:52;102317.41;;;14.78;100.00
29549;BME280;16487;53.094;8.800;2023-06-04T06:57:20;102325.50;;;14.92;100.00
29549;BME280;16487;53.094;8.800;2023-06-04T06:59:47;102335.53;;;15.61;100.00
29549;BME280;16487;53.094;8.800;2023-06-04T07:02:15;102350.84;;;15.60;100.00
29549;BME280;16487;53.094;8.800;2023-06-04T07:04:42;102363.09;;;15.50;100.00
29549;BME280;16487;53.094;8.800;2023-06-04T07:07:10;102370.88;;;15.26;100.00
29549;BME280;16487;53.094;8.800;2023-06-04T07:09:39;102379.13;;;15.33;100.00
29549;BME280;16487;53.094;8.800;2023-06-04T07:12:08;102373.06;;;15.35;100.00
29549;BME280;16487;53.094;8.800;2023-06-04T07:14:35;102376.47;;;15.62;100.00
29549;BME280;16487;53.094;8.800;2023-06-04T07:17:03;102376.03;;;15.47;100.00
29549;BME280;16487;53.094;8.800;2023-06-04T07:19:31;102370.66;;;15.69;100.00
29549;BME280;16487;53.094;8.800;2023-06-04T07:21:59;102384.66;;;16.04;100.00
29549;BME280;16487;53.094;8.800;2023-06-04T07:24:26;102388.47;;;16.27;100.00
29549;BME280;16487;53.094;8.800;2023-06-04T07:26:55;102394.47;;;15.96;100.00
29549;BME280;16487;53.094;8.800;2023-06-04T07:29:23;102403.81;;;15.93;100.00
29549;BME280;16487;53.094;8.800;2023-06-04T07:31:51;102402.25;;;15.92;100.00
29549;BME280;16487;53.094;8.800;2023-06-04T07:34:19;102392.63;;;16.22;100.00
29549;BME280;16487;53.094;8.800;2023-06-04T07:36:47;102397.41;;;16.54;100.00
29549;BME280;16487;53.094;8.800;2023-06-04T07:39:15;102399.00;;;16.39;100.00
29549;BME280;16487;53.094;8.800;2023-06-04T07:41:45;102398.47;;;16.28;100.00
29549;BME280;16487;53.094;8.800;2023-06-04T07:44:14;102388.19;;;16.37;100.00
29549;BME280;16487;53.094;8.800;2023-06-04T07:46:45;102391.56;;;16.61;100.00
29549;BME280;16487;53.094;8.800;2023-06-04T07:49:12;102397.16;;;16.77;100.00
29549;BME280;16487;53.094;8.800;2023-06-04T07:51:40;102399.47;;;16.66;100.00
29549;BME280;16487;53.094;8.800;2023-06-04T07:54:07;102398.88;;;16.87;100.00
29549;BME280;16487;53.094;8.800;2023-06-04T07:56:36;102400.13;;;16.86;100.00
29549;BME280;16487;53.094;8.800;2023-06-04T07:59:05;102394.84;;;17.00;100.00
29549;BME280;16487;53.094;8.800;2023-06-04T08:01:34;102389.59;;;17.28;100.00
29549;BME280;16487;53.094;8.800;2023-06-04T08:04:02;102399.75;;;17.38;100.00
29549;BME280;16487;53.094;8.800;2023-06-04T08:06:30;102410.34;;;17.34;100.00
29549;BME280;16487;53.094;8.800;2023-06-04T08:08:57;102397.16;;;17.43;100.00
29549;BME280;16487;53.094;8.800;2023-06-04T08:11:25;102407.56;;;17.46;100.00
29549;BME280;16487;53.094;8.800;2023-06-04T08:13:58;102412.47;;;17.42;100.00
29549;BME280;16487;53.094;8.800;2023-06-04T08:16:26;102408.13;;;17.54;100.00
29549;BME280;16487;53.094;8.800;2023-06-04T08:18:55;102407.69;;;17.68;100.00
29549;BME280;16487;53.094;8.800;2023-06-04T08:21:25;102409.13;;;17.72;100.00
29549;BME280;16487;53.094;8.800;2023-06-04T08:23:54;102415.47;;;17.76;100.00
29549;BME280;16487;53.094;8.800;2023-06-04T08:26:22;102412.72;;;17.85;100.00
29549;BME280;16487;53.094;8.800;2023-06-04T08:28:50;102420.94;;;17.92;100.00
29549;BME280;16487;53.094;8.800;2023-06-04T08:31:19;102412.97;;;18.25;100.00
29549;BME280;16487;53.094;8.800;2023-06-04T08:33:47;102400.78;;;18.28;100.00
29549;BME280;16487;53.094;8.800;2023-06-04T08:36:16;102407.03;;;18.57;100.00
29549;BME280;16487;53.094;8.800;2023-06-04T08:38:47;102396.16;;;18.68;100.00
29549;BME280;16487;53.094;8.800;2023-06-04T08:41:24;102406.13;;;18.82;100.00
29549;BME280;16487;53.094;8.800;2023-06-04T08:43:56;102397.25;;;18.92;100.00
29549;BME280;16487;53.094;8.800;2023-06-04T08:46:27;102398.63;;;18.88;100.00
29549;BME280;16487;53.094;8.800;2023-06-04T08:48:57;102404.41;;;18.84;100.00
29549;BME280;16487;53.094;8.800;2023-06-04T08:51:29;102394.03;;;19.03;100.00
29549;BME280;16487;53.094;8.800;2023-06-04T08:53:59;102386.38;;;19.12;100.00
29549;BME280;16487;53.094;8.800;2023-06-04T08:56:27;102396.13;;;18.90;100.00
29549;BME280;16487;53.094;8.800;2023-06-04T08:58:56;102400.44;;;19.25;100.00
29549;BME280;16487;53.094;8.800;2023-06-04T09:01:26;102391.16;;;19.46;100.00
29549;BME280;16487;53.094;8.800;2023-06-04T09:03:55;102377.31;;;19.48;100.00
29549;BME280;16487;53.094;8.800;2023-06-04T09:06:25;102378.84;;;19.40;100.00
29549;BME280;16487;53.094;8.800;2023-06-04T09:08:57;102384.59;;;19.58;100.00
29549;BME280;16487;53.094;8.800;2023-06-04T09:11:27;102388.66;;;19.57;100.00
29549;BME280;16487;53.094;8.800;2023-06-04T09:13:59;102398.31;;;19.78;100.00
29549;BME280;16487;53.094;8.800;2023-06-04T09:16:28;102392.03;;;19.74;100.00
29549;BME280;16487;53.094;8.800;2023-06-04T09:18:56;102382.19;;;19.96;100.00
29549;BME280;16487;53.094;8.800;2023-06-04T09:21:24;102369.63;;;20.61;100.00
29549;BME280;16487;53.094;8.800;2023-06-04T09:23:51;102369.84;;;21.26;100.00
29549;BME280;16487;53.094;8.800;2023-06-04T09:26:20;102350.69;;;23.21;100.00
29549;BME280;16487;53.094;8.800;2023-06-04T09:28:48;102336.97;;;23.89;100.00
29549;BME280;16487;53.094;8.800;2023-06-04T09:31:16;102345.94;;;23.47;100.00
29549;BME280;16487;53.094;8.800;2023-06-04T09:33:44;102328.84;;;24.42;100.00
29549;BME280;16487;53.094;8.800;2023-06-04T09:36:12;102311.50;;;25.28;100.00
29549;BME280;16487;53.094;8.800;2023-06-04T09:38:40;102309.31;;;25.96;100.00
29549;BME280;16487;53.094;8.800;2023-06-04T09:41:12;102327.63;;;25.00;100.00
29549;BME280;16487;53.094;8.800;2023-06-04T09:43:41;102330.47;;;25.00;100.00
29549;BME280;16487;53.094;8.800;2023-06-04T09:46:13;102319.09;;;25.73;100.00
29549;BME280;16487;53.094;8.800;2023-06-04T09:48:41;102323.91;;;25.56;100.00
29549;BME280;16487;53.094;8.800;2023-06-04T09:51:10;102311.88;;;25.88;100.00
29549;BME280;16487;53.094;8.800;2023-06-04T09:53:39;102302.38;;;26.08;100.00
29549;BME280;16487;53.094;8.800;2023-06-04T09:56:07;102313.03;;;26.13;100.00
29549;BME280;16487;53.094;8.800;2023-06-04T09:58:35;102311.34;;;25.37;100.00
29549;BME280;16487;53.094;8.800;2023-06-04T10:01:05;102310.78;;;26.39;100.00
29549;BME280;16487;53.094;8.800;2023-06-04T10:03:34;102317.13;;;25.17;100.00
29549;BME280;16487;53.094;8.800;2023-06-04T10:06:04;102290.59;;;26.92;100.00
29549;BME280;16487;53.094;8.800;2023-06-04T10:08:33;102291.63;;;26.89;100.00
29549;BME280;16487;53.094;8.800;2023-06-04T10:11:04;102291.09;;;27.02;100.00
29549;BME280;16487;53.094;8.800;2023-06-04T10:13:41;102285.56;;;27.54;100.00
29549;BME280;16487;53.094;8.800;2023-06-04T10:16:14;102292.41;;;26.68;100.00
29549;BME280;16487;53.094;8.800;2023-06-04T10:19:00;102294.25;;;25.48;100.00
29549;BME280;16487;53.094;8.800;2023-06-04T10:21:28;102301.38;;;24.96;100.00
29549;BME280;16487;53.094;8.800;2023-06-04T10:23:57;102309.72;;;25.72;100.00
29549;BME280;16487;53.094;8.800;2023-06-04T10:26:27;102315.94;;;24.98;100.00
29549;BME280;16487;53.094;8.800;2023-06-04T10:28:56;102317.78;;;24.49;100.00
29549;BME280;16487;53.094;8.800;2023-06-04T10:31:25;102320.44;;;25.10;100.00
29549;BME280;16487;53.094;8.800;2023-06-04T10:33:54;102318.88;;;25.09;100.00
29549;BME280;16487;53.094;8.800;2023-06-04T10:36:23;102327.84;;;25.64;100.00
29549;BME280;16487;53.094;8.800;2023-06-04T10:38:52;102313.13;;;25.82;100.00
29549;BME280;16487;53.094;8.800;2023-06-04T10:41:23;102315.78;;;25.91;100.00
29549;BME280;16487;53.094;8.800;2023-06-04T10:43:59;102311.09;;;26.58;100.00
29549;BME280;16487;53.094;8.800;2023-06-04T10:46:37;102301.22;;;26.75;100.00
29549;BME280;16487;53.094;8.800;2023-06-04T10:49:05;102303.84;;;26.68;100.00
29549;BME280;16487;53.094;8.800;2023-06-04T10:51:34;102309.66;;;26.09;100.00
29549;BME280;16487;53.094;8.800;2023-06-04T10:54:02;102308.44;;;26.38;100.00
29549;BME280;16487;53.094;8.800;2023-06-04T10:56:31;102324.56;;;25.82;100.00
29549;BME280;16487;53.094;8.800;2023-06-04T10:59:00;102307.19;;;26.66;100.00
29549;BME280;16487;53.094;8.800;2023-06-04T11:01:30;102293.19;;;26.79;100.00
29549;BME280;16487;53.094;8.800;2023-06-04T11:03:57;102294.19;;;26.54;100.00
29549;BME280;16487;53.094;8.800;2023-06-04T11:06:25;102285.63;;;27.09;100.00
29549;BME280;16487;53.094;8.800;2023-06-04T11:09:02;102281.81;;;27.92;100.00
29549;BME280;16487;53.094;8.800;2023-06-04T11:11:32;102287.19;;;27.16;100.00
29549;BME280;16487;53.094;8.800;2023-06-04T11:14:07;102271.84;;;28.04;100.00
29549;BME280;16487;53.094;8.800;2023-06-04T11:16:36;102285.91;;;26.95;100.00
29549;BME280;16487;53.094;8.800;2023-06-04T11:19:04;102280.91;;;26.62;100.00
29549;BME280;16487;53.094;8.800;2023-06-04T11:21:33;102291.31;;;27.26;100.00
29549;BME280;16487;53.094;8.800;2023-06-04T11:24:03;102269.50;;;27.34;100.00
29549;BME280;16487;53.094;8.800;2023-06-04T11:26:31;102279.72;;;28.79;100.00
29549;BME280;16487;53.094;8.800;2023-06-04T11:28:59;102257.00;;;29.11;100.00
29549;BME280;16487;53.094;8.800;2023-06-04T11:31:27;102267.88;;;27.50;100.00
29549;BME280;16487;53.094;8.800;2023-06-04T11:33:55;102256.44;;;28.48;100.00
29549;BME280;16487;53.094;8.800;2023-06-04T11:36:23;102253.66;;;29.55;100.00
29549;BME280;16487;53.094;8.800;2023-06-04T11:38:55;102264.31;;;28.01;100.00
29549;BME280;16487;53.094;8.800;2023-06-04T11:41:23;102247.84;;;29.12;100.00
29549;BME280;16487;53.094;8.800;2023-06-04T11:43:51;102248.41;;;29.05;100.00
29549;BME280;16487;53.094;8.800;2023-06-04T11:46:19;102245.41;;;29.65;100.00
29549;BME280;16487;53.094;8.800;2023-06-04T11:48:46;102239.31;;;30.48;100.00
29549;BME280;16487;53.094;8.800;2023-06-04T11:51:19;102239.13;;;28.29;100.00
29549;BME280;16487;53.094;8.800;2023-06-04T11:53:49;102236.94;;;29.05;100.00
29549;BME280;16487;53.094;8.800;2023-06-04T11:56:17;102233.34;;;29.48;100.00
29549;BME280;16487;53.094;8.800;2023-06-04T11:58:45;102220.94;;;29.58;100.00
29549;BME280;16487;53.094;8.800;2023-06-04T12:01:13;102220.94;;;29.58;100.00
29549;BME280;16487;53.094;8.800;2023-06-04T12:03:42;102226.03;;;28.98;100.00
29549;BME280;16487;53.094;8.800;2023-06-04T12:06:15;102242.09;;;28.53;100.00
29549;BME280;16487;53.094;8.800;2023-06-04T12:08:53;102250.84;;;28.31;100.00
29549;BME280;16487;53.094;8.800;2023-06-04T12:11:26;102240.78;;;29.38;100.00
29549;BME280;16487;53.094;8.800;2023-06-04T12:13:56;102237.00;;;29.91;100.00
29549;BME280;16487;53.094;8.800;2023-06-04T12:16:24;102242.00;;;29.90;100.00
29549;BME280;16487;53.094;8.800;2023-06-04T12:18:51;102219.84;;;29.85;100.00
29549;BME280;16487;53.094;8.800;2023-06-04T12:21:24;102225.19;;;28.79;100.00
29549;BME280;16487;53.094;8.800;2023-06-04T12:23:54;102237.53;;;28.69;100.00
29549;BME280;16487;53.094;8.800;2023-06-04T12:26:22;102227.69;;;30.03;100.00
29549;BME280;16487;53.094;8.800;2023-06-04T12:28:59;102220.31;;;29.47;100.00
29549;BME280;16487;53.094;8.800;2023-06-04T12:31:26;102232.59;;;28.69;100.00
29549;BME280;16487;53.094;8.800;2023-06-04T12:33:54;102217.75;;;29.62;100.00
29549;BME280;16487;53.094;8.800;2023-06-04T12:36:24;102227.00;;;29.06;100.00
29549;BME280;16487;53.094;8.800;2023-06-04T12:38:51;102215.47;;;29.79;100.00
29549;BME280;16487;53.094;8.800;2023-06-04T12:41:19;102218.19;;;29.90;100.00
29549;BME280;16487;53.094;8.800;2023-06-04T12:43:46;102232.66;;;29.60;100.00
29549;BME280;16487;53.094;8.800;2023-06-04T12:46:14;102222.47;;;30.02;100.00
29549;BME280;16487;53.094;8.800;2023-06-04T12:48:42;102224.75;;;29.23;100.00